Lennut, Kentucky
Current Conditions -  °F | °C
As of 9:07 PM on Sunday 28 Dec 2014 (Local Time) from KJKL Reporting Station
Light Rain Light Rain  
Wind Chill: 37°   Ceiling: 200
Heat Index: 37°   Visibility: 4mi
Dew Point: 35°   Wind: 0mph
Humidity: 93%   Direction: NA
Pressure: 30.15"   Gusts: NA
Location:  37.2911°N, 83.2003°W
Report Text: KJKL 290207Z AUTO 00000KT 4SM -RA BR OVC002 03/02 A3015 RMK AO2 P0001 T00280017
Loading
Personal Weather Stations






























Interactive Weather Map New forecast layout! Learn more

10-Day Weather Forecast

Advertisements
Track Severe Weather on mobile